Time;durP1;ratioP1;P1;durP2;ratioP2;P2;SDS_P1;SDS_P2;PMS_P1;PMS_P2;Temp;Humidity;BMP_temperature;BMP_pressure;BME280_temperature;BME280_humidity;BME280_pressure;Samples;Min_cycle;Max_cycle;Signal;HPM_P1;HPM_P2
2022/01/27 00:04:50;;;;;;;33.77;21.80;;;6.40;99.90;;;;;;5008663;28;20672;-25
2022/01/27 00:07:17;;;;;;;32.73;20.70;;;6.40;99.90;;;;;;5015531;28;20208;-25
2022/01/27 00:10:03;;;;;;;32.93;21.00;;;6.40;99.90;;;;;;5011949;28;20217;-25
2022/01/27 00:12:33;;;;;;;34.93;20.90;;;6.40;99.90;;;;;;5009052;28;20292;-25
2022/01/27 00:15:12;;;;;;;33.43;21.00;;;6.40;99.90;;;;;;5007443;28;20201;-25
2022/01/27 00:17:48;;;;;;;37.50;22.47;;;6.40;99.90;;;;;;5014480;28;20296;-25
2022/01/27 00:20:16;;;;;;;31.67;20.73;;;6.40;99.90;;;;;;5007651;28;20201;-25
2022/01/27 00:22:43;;;;;;;35.13;22.03;;;6.40;99.90;;;;;;5008048;28;20205;-24
2022/01/27 00:25:11;;;;;;;33.37;20.80;;;6.40;99.90;;;;;;5011319;28;20227;-25
2022/01/27 00:27:40;;;;;;;35.73;21.77;;;6.40;99.90;;;;;;5008219;28;20216;-25
2022/01/27 00:30:09;;;;;;;33.77;20.10;;;6.40;99.90;;;;;;5015790;28;20557;-25
2022/01/27 00:32:39;;;;;;;33.90;22.23;;;6.40;99.90;;;;;;5011055;28;20205;-25
2022/01/27 00:35:07;;;;;;;34.73;20.20;;;6.50;99.90;;;;;;5011260;28;20279;-25
2022/01/27 00:37:37;;;;;;;36.13;21.40;;;6.40;99.90;;;;;;5023871;28;20397;-25
2022/01/27 00:40:07;;;;;;;33.77;22.10;;;6.50;99.90;;;;;;5025205;28;20271;-25
2022/01/27 00:42:34;;;;;;;32.63;20.03;;;6.50;99.90;;;;;;5019324;28;20626;-25
2022/01/27 00:45:04;;;;;;;33.53;20.77;;;6.50;99.90;;;;;;5009785;28;20218;-25
2022/01/27 00:47:32;;;;;;;35.37;22.07;;;6.50;99.90;;;;;;5008872;28;20210;-24
2022/01/27 00:50:00;;;;;;;34.17;21.37;;;6.50;99.90;;;;;;5010989;28;20654;-25
2022/01/27 00:52:35;;;;;;;33.03;20.50;;;6.50;99.90;;;;;;5008497;28;20669;-24
2022/01/27 00:55:05;;;;;;;32.27;20.60;;;6.50;99.90;;;;;;5011452;28;20627;-25
2022/01/27 01:00:34;;;;;;;33.57;21.17;;;6.50;99.90;;;;;;5010353;28;20213;-25
2022/01/27 01:03:10;;;;;;;32.13;21.17;;;6.50;99.90;;;;;;5010466;28;20253;-25
2022/01/27 01:19:41;;;;;;;30.53;20.27;;;6.60;99.90;;;;;;5007142;28;20228;-25
2022/01/27 01:33:13;;;;;;;30.87;19.30;;;6.60;99.90;;;;;;5013506;28;20656;-25
2022/01/27 01:36:01;;;;;;;32.40;20.50;;;6.60;99.90;;;;;;5015301;28;20228;-25
2022/01/27 01:38:34;;;;;;;31.43;19.83;;;6.60;99.90;;;;;;5023423;28;20316;-25
2022/01/27 01:41:03;;;;;;;31.97;20.10;;;6.60;99.90;;;;;;5029642;28;20201;-25
2022/01/27 01:43:36;;;;;;;34.10;21.10;;;6.60;99.90;;;;;;5013583;28;20308;-25
2022/01/27 01:46:03;;;;;;;33.67;21.13;;;6.60;99.90;;;;;;5023776;28;20212;-25
2022/01/27 01:48:30;;;;;;;34.00;19.87;;;6.60;99.90;;;;;;5008661;28;20283;-25
2022/01/27 01:51:02;;;;;;;30.97;20.70;;;6.60;99.90;;;;;;5007326;28;20359;-25
2022/01/27 01:53:30;;;;;;;33.83;20.20;;;6.60;99.90;;;;;;5009330;28;20210;-25
2022/01/27 01:56:00;;;;;;;31.67;19.70;;;6.70;99.90;;;;;;5006319;28;20364;-25
2022/01/27 01:58:29;;;;;;;31.97;19.50;;;6.70;99.90;;;;;;5012881;28;20209;-25
2022/01/27 02:00:57;;;;;;;31.87;19.83;;;6.70;99.90;;;;;;5007902;28;20289;-25
2022/01/27 02:03:26;;;;;;;28.47;18.47;;;6.70;99.90;;;;;;5014282;28;20688;-25
2022/01/27 02:05:56;;;;;;;32.73;20.13;;;6.70;99.90;;;;;;5006485;28;20232;-25
2022/01/27 02:19:28;;;;;;;34.53;19.83;;;6.70;99.90;;;;;;5005690;28;20696;-25
2022/01/27 02:21:58;;;;;;;28.27;17.83;;;6.70;99.90;;;;;;5009383;28;20238;-25
2022/01/27 02:24:31;;;;;;;31.60;20.13;;;6.70;99.90;;;;;;5010386;28;20190;-25
2022/01/27 02:26:59;;;;;;;29.80;18.70;;;6.70;99.90;;;;;;5006837;28;20672;-24
2022/01/27 02:29:31;;;;;;;31.67;19.23;;;6.70;99.90;;;;;;5007058;28;20601;-25
2022/01/27 02:32:02;;;;;;;30.70;19.23;;;6.70;99.90;;;;;;5008094;28;20376;-25
2022/01/27 02:34:29;;;;;;;34.07;20.17;;;6.70;99.90;;;;;;5018847;28;20591;-25
2022/01/27 02:36:57;;;;;;;30.23;17.97;;;6.80;99.90;;;;;;5007906;28;20240;-25
2022/01/27 02:39:26;;;;;;;29.60;19.87;;;6.70;99.90;;;;;;5007331;28;20273;-25
2022/01/27 02:42:29;;;;;;;31.27;19.23;;;6.80;99.90;;;;;;5008361;28;20759;-25
2022/01/27 02:45:04;;;;;;;29.87;19.13;;;6.80;99.90;;;;;;5001875;28;20205;-25
2022/01/27 02:47:32;;;;;;;31.73;19.20;;;6.80;99.90;;;;;;5021695;28;20205;-25
2022/01/27 02:50:03;;;;;;;30.03;18.97;;;6.80;99.90;;;;;;5009112;28;20659;-25
2022/01/27 02:52:30;;;;;;;32.40;18.33;;;6.80;99.90;;;;;;5008784;28;20214;-24
2022/01/27 02:54:59;;;;;;;31.00;19.40;;;6.80;99.90;;;;;;5012904;28;20640;-25
2022/01/27 02:57:27;;;;;;;30.63;18.23;;;6.80;99.90;;;;;;5024180;28;20319;-25
2022/01/27 02:59:56;;;;;;;31.83;19.17;;;6.90;99.90;;;;;;5015993;28;20197;-24
2022/01/27 03:02:24;;;;;;;29.47;18.57;;;6.90;99.90;;;;;;5017115;28;20352;-25
2022/01/27 03:04:54;;;;;;;36.03;20.40;;;6.90;99.90;;;;;;5007397;28;20236;-25
2022/01/27 03:07:21;;;;;;;33.40;20.27;;;6.90;99.90;;;;;;5008345;28;20312;-25
2022/01/27 03:09:48;;;;;;;33.43;19.77;;;6.90;99.90;;;;;;5007176;28;20592;-24
2022/01/27 03:12:18;;;;;;;31.37;19.33;;;6.90;99.90;;;;;;5007784;28;20243;-25
2022/01/27 03:14:46;;;;;;;31.73;19.23;;;6.90;99.90;;;;;;5015454;28;20229;-25
2022/01/27 03:17:15;;;;;;;32.63;18.83;;;6.90;99.90;;;;;;5008522;28;20231;-25
2022/01/27 03:19:45;;;;;;;32.27;19.47;;;7.00;99.90;;;;;;5009989;28;20247;-25
2022/01/27 03:22:12;;;;;;;31.60;19.50;;;7.00;99.90;;;;;;5008723;28;20232;-25
2022/01/27 03:24:39;;;;;;;30.47;18.43;;;7.00;99.90;;;;;;5017519;28;20720;-24
2022/01/27 03:27:15;;;;;;;34.13;19.77;;;7.00;99.90;;;;;;5008327;28;20216;-24
2022/01/27 03:29:43;;;;;;;29.60;18.53;;;7.00;99.90;;;;;;5008021;28;20664;-25
2022/01/27 03:32:10;;;;;;;33.27;19.30;;;7.00;99.90;;;;;;5007516;28;20209;-25
2022/01/27 03:34:38;;;;;;;31.33;18.83;;;7.00;99.90;;;;;;5010536;28;20207;-25
2022/01/27 03:37:05;;;;;;;35.30;19.00;;;7.00;99.90;;;;;;5007975;28;20252;-25
2022/01/27 03:39:40;;;;;;;30.07;18.13;;;7.00;99.90;;;;;;4996620;28;20214;-25
2022/01/27 03:42:08;;;;;;;33.87;20.00;;;7.00;99.90;;;;;;5037292;28;20296;-25
2022/01/27 03:44:38;;;;;;;34.80;20.77;;;7.00;99.90;;;;;;5013191;28;20224;-25
2022/01/27 03:47:05;;;;;;;35.87;19.87;;;7.10;99.90;;;;;;5007653;28;20508;-25
2022/01/27 03:49:35;;;;;;;31.93;19.53;;;7.10;99.90;;;;;;5011877;28;20572;-25
2022/01/27 03:52:05;;;;;;;31.97;19.30;;;7.10;99.90;;;;;;5006251;28;20226;-25
2022/01/27 03:54:34;;;;;;;34.87;19.37;;;7.10;99.90;;;;;;5012599;28;20316;-25
2022/01/27 03:57:02;;;;;;;32.33;19.30;;;7.10;99.90;;;;;;5011058;28;21107;-24
2022/01/27 03:59:32;;;;;;;31.50;19.53;;;7.10;99.90;;;;;;5041744;28;20412;-25
2022/01/27 04:02:04;;;;;;;33.77;19.80;;;7.10;99.90;;;;;;5041361;28;20679;-25
2022/01/27 04:04:35;;;;;;;35.07;20.10;;;7.10;99.90;;;;;;5018417;28;20574;-25
2022/01/27 04:07:08;;;;;;;33.57;19.80;;;7.10;99.90;;;;;;5010491;28;20294;-25
2022/01/27 04:09:35;;;;;;;31.90;19.30;;;7.10;99.90;;;;;;5012714;28;20300;-25
2022/01/27 04:12:02;;;;;;;35.77;20.60;;;7.10;99.90;;;;;;5010523;28;20790;-25
2022/01/27 04:14:30;;;;;;;33.90;20.80;;;7.10;99.90;;;;;;5008565;28;20600;-25
2022/01/27 04:16:58;;;;;;;32.73;20.13;;;7.10;99.90;;;;;;5009803;28;20224;-25
2022/01/27 04:19:26;;;;;;;32.03;19.80;;;7.10;99.90;;;;;;5008958;28;20201;-25
2022/01/27 04:21:55;;;;;;;39.70;21.23;;;7.10;99.90;;;;;;5009881;28;20224;-25
2022/01/27 04:24:25;;;;;;;36.23;20.90;;;7.10;99.90;;;;;;5015656;28;20200;-25
2022/01/27 04:27:00;;;;;;;33.43;20.37;;;7.10;99.90;;;;;;5011395;28;20237;-25
2022/01/27 04:29:29;;;;;;;34.03;20.20;;;7.10;99.90;;;;;;5012376;28;20231;-25
2022/01/27 04:31:56;;;;;;;35.40;20.57;;;7.00;99.90;;;;;;5022169;28;20213;-26
2022/01/27 04:34:24;;;;;;;34.97;20.93;;;7.00;99.90;;;;;;5013551;28;20220;-25
2022/01/27 04:36:58;;;;;;;38.17;22.40;;;7.00;99.90;;;;;;5011526;28;20230;-25
2022/01/27 04:39:36;;;;;;;36.03;20.93;;;7.00;99.90;;;;;;5026035;28;20696;-25
2022/01/27 04:42:11;;;;;;;33.23;19.43;;;7.00;99.90;;;;;;4991830;28;20260;-25
2022/01/27 04:47:15;;;;;;;34.23;20.63;;;6.90;99.90;;;;;;5031250;28;20235;-25
2022/01/27 04:49:46;;;;;;;36.27;20.03;;;6.90;99.90;;;;;;5028616;28;20213;-25
2022/01/27 04:52:13;;;;;;;37.23;21.80;;;6.90;99.90;;;;;;5010465;28;20247;-25
2022/01/27 04:55:02;;;;;;;38.83;22.00;;;6.90;99.90;;;;;;5041197;28;20684;-25
2022/01/27 04:57:30;;;;;;;40.37;21.70;;;6.90;99.90;;;;;;5011063;28;20283;-25
2022/01/27 05:00:05;;;;;;;39.37;21.97;;;6.90;99.90;;;;;;5023126;28;20770;-24
2022/01/27 05:02:56;;;;;;;38.93;21.27;;;6.90;99.90;;;;;;5009250;28;20223;-25
2022/01/27 05:05:23;;;;;;;41.70;22.03;;;6.80;99.90;;;;;;5020720;28;20244;-25
2022/01/27 05:08:01;;;;;;;39.77;22.53;;;6.80;99.90;;;;;;5009791;28;20232;-24
2022/01/27 05:10:32;;;;;;;39.60;22.27;;;6.80;99.90;;;;;;5005970;28;20209;-25
2022/01/27 05:13:17;;;;;;;44.30;23.53;;;6.80;99.90;;;;;;5010857;28;20209;-25
2022/01/27 05:15:46;;;;;;;37.00;22.13;;;6.80;99.90;;;;;;5011413;28;20210;-25
2022/01/27 05:18:16;;;;;;;41.63;23.17;;;6.70;99.90;;;;;;5004709;28;20553;-25
2022/01/27 05:20:46;;;;;;;43.70;22.53;;;6.70;99.90;;;;;;5009719;28;20207;-25
2022/01/27 05:23:16;;;;;;;37.97;23.67;;;6.70;99.90;;;;;;5009485;28;20213;-25
2022/01/27 05:25:45;;;;;;;39.93;23.90;;;6.70;99.90;;;;;;5011461;28;20559;-25
2022/01/27 05:28:15;;;;;;;40.90;23.27;;;6.60;99.90;;;;;;5009002;28;20201;-25
2022/01/27 05:30:45;;;;;;;43.03;24.83;;;6.70;99.90;;;;;;5009643;28;20210;-25
2022/01/27 05:33:13;;;;;;;42.83;24.00;;;6.60;99.90;;;;;;5009755;28;20268;-25
2022/01/27 05:35:45;;;;;;;41.20;24.57;;;6.60;99.90;;;;;;5006950;28;20536;-25
2022/01/27 05:38:16;;;;;;;47.30;25.00;;;6.60;99.90;;;;;;5009504;28;20221;-25
2022/01/27 05:40:46;;;;;;;46.40;26.37;;;6.60;99.90;;;;;;5007707;28;20205;-25
2022/01/27 05:43:13;;;;;;;42.67;24.90;;;6.60;99.90;;;;;;5011280;28;20602;-25
2022/01/27 05:45:41;;;;;;;43.50;24.30;;;6.60;99.90;;;;;;5009056;28;20200;-25
2022/01/27 05:48:08;;;;;;;44.40;24.83;;;6.50;99.90;;;;;;5010623;28;20228;-25
2022/01/27 05:50:35;;;;;;;47.70;26.37;;;6.50;99.90;;;;;;5009702;28;20261;-25
2022/01/27 05:53:03;;;;;;;48.47;25.93;;;6.50;99.90;;;;;;5013992;28;20668;-25
2022/01/27 05:55:31;;;;;;;45.70;26.03;;;6.50;99.90;;;;;;5008027;28;20209;-25
2022/01/27 05:57:58;;;;;;;45.13;25.07;;;6.50;99.90;;;;;;5010666;28;20685;-25
2022/01/27 06:00:27;;;;;;;45.83;26.37;;;6.50;99.90;;;;;;5012446;28;20219;-25
2022/01/27 06:02:56;;;;;;;43.23;25.53;;;6.50;99.90;;;;;;5004321;28;20201;-25
2022/01/27 06:05:24;;;;;;;46.83;26.23;;;6.50;99.90;;;;;;5005368;28;20732;-24
2022/01/27 06:07:51;;;;;;;43.10;25.17;;;6.50;99.90;;;;;;5004333;28;20285;-24
2022/01/27 06:10:19;;;;;;;46.00;25.27;;;6.50;99.90;;;;;;5004119;28;20218;-24
2022/01/27 06:12:51;;;;;;;44.67;26.00;;;6.50;99.90;;;;;;5003936;28;20714;-25
2022/01/27 06:15:21;;;;;;;51.40;25.60;;;6.50;99.90;;;;;;5002596;28;20221;-25
2022/01/27 06:17:49;;;;;;;52.33;25.43;;;6.50;99.90;;;;;;5004201;28;20903;-25
2022/01/27 06:20:18;;;;;;;42.70;25.47;;;6.50;99.90;;;;;;5022924;28;20198;-25
2022/01/27 06:22:48;;;;;;;45.27;25.90;;;6.50;99.90;;;;;;5008776;28;20216;-25
2022/01/27 06:25:16;;;;;;;49.00;27.07;;;6.50;99.90;;;;;;5008985;28;20197;-25
2022/01/27 06:27:43;;;;;;;44.60;26.70;;;6.50;99.90;;;;;;5007673;28;20245;-25
2022/01/27 06:30:13;;;;;;;48.67;27.57;;;6.50;99.90;;;;;;5011126;28;20732;-25
2022/01/27 06:32:41;;;;;;;51.10;28.30;;;6.50;99.90;;;;;;5007440;28;20309;-25
2022/01/27 06:35:10;;;;;;;47.50;26.57;;;6.50;99.90;;;;;;5019126;28;20232;-25
2022/01/27 06:37:41;;;;;;;47.30;26.53;;;6.50;99.90;;;;;;5008585;28;20221;-25
2022/01/27 06:40:14;;;;;;;46.40;26.57;;;6.50;99.90;;;;;;5009086;28;20276;-25
2022/01/27 06:42:43;;;;;;;49.50;26.43;;;6.60;99.90;;;;;;5008968;28;20634;-25
2022/01/27 06:45:15;;;;;;;48.00;25.60;;;6.60;99.90;;;;;;5007075;28;20206;-25
2022/01/27 06:47:42;;;;;;;47.93;25.83;;;6.60;99.90;;;;;;5007581;28;20201;-25
2022/01/27 06:50:12;;;;;;;44.70;25.53;;;6.60;99.90;;;;;;5008202;28;20209;-26
2022/01/27 06:52:45;;;;;;;48.00;25.90;;;6.60;99.90;;;;;;5009018;28;20304;-26
2022/01/27 06:55:17;;;;;;;47.00;27.00;;;6.60;99.90;;;;;;5006212;28;22001;-26
2022/01/27 06:57:50;;;;;;;44.93;24.63;;;6.70;99.90;;;;;;5007757;28;20229;-26
2022/01/27 07:00:22;;;;;;;44.20;24.53;;;6.70;99.90;;;;;;4998808;28;20651;-26
2022/01/27 07:02:49;;;;;;;44.13;24.63;;;6.70;99.90;;;;;;5004755;28;20727;-26
2022/01/27 07:05:21;;;;;;;41.37;23.33;;;6.80;99.90;;;;;;5007354;28;20293;-26
2022/01/27 07:07:51;;;;;;;42.70;24.00;;;6.80;99.90;;;;;;5007744;28;20220;-26
2022/01/27 07:10:18;;;;;;;43.33;24.00;;;6.90;99.90;;;;;;5001322;28;20706;-26
2022/01/27 07:12:47;;;;;;;40.57;23.47;;;6.90;99.90;;;;;;5011910;28;20288;-26
2022/01/27 07:15:17;;;;;;;46.20;24.33;;;6.90;99.90;;;;;;5008596;28;20198;-27
2022/01/27 07:17:45;;;;;;;41.13;24.07;;;6.90;99.90;;;;;;5008400;28;20218;-26
2022/01/27 07:20:13;;;;;;;45.90;23.53;;;7.00;99.90;;;;;;5014654;28;20201;-26
2022/01/27 07:22:47;;;;;;;38.13;22.53;;;7.10;99.90;;;;;;5012559;28;20660;-26
2022/01/27 07:25:14;;;;;;;40.77;22.60;;;7.00;99.90;;;;;;5008440;28;20202;-26
2022/01/27 07:27:41;;;;;;;42.27;23.50;;;7.10;99.90;;;;;;5013578;28;20201;-26
2022/01/27 07:30:11;;;;;;;39.43;21.97;;;7.20;99.90;;;;;;5008812;28;20691;-26
2022/01/27 07:32:41;;;;;;;40.03;23.13;;;7.20;99.90;;;;;;5010634;28;20212;-26
2022/01/27 07:35:08;;;;;;;39.37;22.43;;;7.30;99.90;;;;;;5008353;28;20229;-26
2022/01/27 07:37:36;;;;;;;41.27;22.70;;;7.30;99.90;;;;;;5013066;28;20217;-26
2022/01/27 07:40:04;;;;;;;39.90;23.43;;;7.30;99.90;;;;;;5011311;28;20194;-26
2022/01/27 07:42:33;;;;;;;37.37;22.20;;;7.40;99.90;;;;;;5007046;28;20232;-26
2022/01/27 07:45:01;;;;;;;38.70;22.50;;;7.40;99.90;;;;;;5007557;28;20640;-26
2022/01/27 07:47:28;;;;;;;38.83;21.97;;;7.40;99.90;;;;;;5007895;28;20264;-26
2022/01/27 07:49:58;;;;;;;37.17;22.17;;;7.40;99.90;;;;;;5010059;28;20252;-26
2022/01/27 07:52:25;;;;;;;39.43;21.37;;;7.50;99.90;;;;;;5010846;28;20308;-26
2022/01/27 07:54:52;;;;;;;40.67;21.57;;;7.50;99.90;;;;;;5011889;28;20266;-26
2022/01/27 07:57:19;;;;;;;39.37;21.40;;;7.50;99.90;;;;;;5003911;28;20627;-26
2022/01/27 07:59:47;;;;;;;37.33;21.50;;;7.60;99.90;;;;;;5005289;28;20212;-26
2022/01/27 08:02:17;;;;;;;37.33;21.47;;;7.60;99.90;;;;;;5000561;28;20197;-26
2022/01/27 08:04:46;;;;;;;34.07;20.60;;;7.60;99.90;;;;;;5008031;28;20216;-26
2022/01/27 08:07:14;;;;;;;40.37;21.00;;;7.70;99.90;;;;;;5006621;28;20204;-26
2022/01/27 08:09:43;;;;;;;36.83;21.30;;;7.60;99.90;;;;;;5003270;28;20253;-26
2022/01/27 08:12:11;;;;;;;32.07;19.20;;;7.70;99.90;;;;;;5007904;28;20221;-24
2022/01/27 08:14:38;;;;;;;34.83;19.33;;;7.80;99.90;;;;;;5004794;28;20194;-24
2022/01/27 08:17:10;;;;;;;40.50;19.90;;;7.80;99.90;;;;;;5007695;28;20227;-25
2022/01/27 08:19:37;;;;;;;34.93;20.17;;;7.90;99.90;;;;;;5007570;28;20567;-24
2022/01/27 08:22:10;;;;;;;37.20;19.47;;;7.90;99.90;;;;;;5008016;28;20632;-24
2022/01/27 08:24:38;;;;;;;37.73;20.33;;;7.90;99.90;;;;;;5007503;28;20299;-25
2022/01/27 08:27:11;;;;;;;33.70;19.60;;;8.00;99.90;;;;;;5005733;28;20307;-25
2022/01/27 08:30:03;;;;;;;31.67;17.77;;;8.00;99.90;;;;;;5006465;28;20201;-25
2022/01/27 08:32:47;;;;;;;33.17;20.00;;;8.00;99.90;;;;;;5007721;28;20233;-24
2022/01/27 08:35:17;;;;;;;32.77;17.70;;;8.00;99.90;;;;;;5006043;28;20284;-24
2022/01/27 08:37:48;;;;;;;32.20;18.57;;;8.10;99.90;;;;;;5006078;28;20222;-24
2022/01/27 08:40:19;;;;;;;33.93;18.70;;;8.10;99.90;;;;;;5007914;28;20231;-25
2022/01/27 08:43:05;;;;;;;31.63;18.83;;;8.10;99.90;;;;;;5011019;28;20240;-24
2022/01/27 08:45:32;;;;;;;33.13;18.20;;;8.20;99.90;;;;;;5007847;28;20206;-24
2022/01/27 08:48:01;;;;;;;31.97;17.80;;;8.20;99.90;;;;;;5006900;28;20223;-24
2022/01/27 08:50:28;;;;;;;30.90;19.33;;;8.30;99.90;;;;;;5008510;28;20635;-24
2022/01/27 08:53:01;;;;;;;34.77;20.10;;;8.30;99.90;;;;;;5008729;28;20229;-25
2022/01/27 08:55:31;;;;;;;29.03;17.67;;;8.40;99.90;;;;;;5005959;28;20288;-24
2022/01/27 08:57:58;;;;;;;30.03;18.13;;;8.40;99.90;;;;;;5008387;28;20308;-26
2022/01/27 09:00:26;;;;;;;31.23;18.10;;;8.40;99.90;;;;;;5020843;28;20233;-24
2022/01/27 09:02:54;;;;;;;32.67;18.13;;;8.40;99.90;;;;;;5008464;28;20233;-25
2022/01/27 09:05:21;;;;;;;39.30;18.97;;;8.50;99.90;;;;;;5006502;28;21003;-24
2022/01/27 09:07:50;;;;;;;29.53;16.90;;;8.50;99.90;;;;;;5010920;28;20683;-25
2022/01/27 09:10:18;;;;;;;33.60;18.53;;;8.60;99.90;;;;;;5012027;28;20210;-24
2022/01/27 09:12:48;;;;;;;29.77;17.97;;;8.60;99.90;;;;;;5010924;28;20626;-24
2022/01/27 09:15:15;;;;;;;29.40;18.03;;;8.70;99.90;;;;;;5008253;28;20217;-24
2022/01/27 09:17:47;;;;;;;31.90;17.97;;;8.70;99.90;;;;;;5009914;28;20218;-24
2022/01/27 09:20:16;;;;;;;32.70;18.20;;;8.70;99.90;;;;;;5009909;28;20568;-25
2022/01/27 09:22:44;;;;;;;35.30;18.43;;;8.70;99.90;;;;;;5010356;28;20202;-24
2022/01/27 09:25:17;;;;;;;29.63;17.53;;;8.80;99.90;;;;;;5009309;28;20205;-24
2022/01/27 09:27:47;;;;;;;33.97;18.63;;;8.70;99.90;;;;;;5009967;28;20218;-24
2022/01/27 09:30:17;;;;;;;29.03;16.83;;;8.80;99.90;;;;;;5008617;28;20210;-25
2022/01/27 09:32:45;;;;;;;32.43;17.47;;;8.80;99.90;;;;;;5009583;28;20292;-25
2022/01/27 09:35:16;;;;;;;29.27;16.43;;;8.80;99.90;;;;;;5009830;28;20264;-25
2022/01/27 09:37:43;;;;;;;29.60;16.80;;;8.90;99.90;;;;;;5009819;28;20225;-24
2022/01/27 09:40:12;;;;;;;32.37;17.53;;;8.90;99.90;;;;;;5009411;28;20632;-24
2022/01/27 09:42:41;;;;;;;33.20;17.80;;;8.90;99.90;;;;;;5010274;28;20709;-24
2022/01/27 09:45:09;;;;;;;32.20;18.77;;;9.00;99.90;;;;;;5008453;28;20292;-24
2022/01/27 09:47:41;;;;;;;30.67;17.20;;;9.00;99.90;;;;;;5007473;28;20446;-24
2022/01/27 09:50:24;;;;;;;32.50;17.77;;;9.00;99.90;;;;;;4999531;28;20198;-25
2022/01/27 09:52:52;;;;;;;32.07;18.20;;;9.00;99.90;;;;;;5008249;28;20425;-24
2022/01/27 09:55:23;;;;;;;31.10;17.67;;;9.10;99.90;;;;;;5007802;28;20197;-25
2022/01/27 09:57:58;;;;;;;35.10;19.50;;;9.10;99.90;;;;;;5007928;28;20313;-24
2022/01/27 10:00:28;;;;;;;26.70;17.27;;;9.10;99.90;;;;;;5006418;28;20734;-24
2022/01/27 10:03:13;;;;;;;33.00;17.80;;;9.20;99.90;;;;;;5009772;28;20284;-25
2022/01/27 10:05:44;;;;;;;30.37;17.67;;;9.20;99.90;;;;;;5007793;28;20201;-24
2022/01/27 10:08:15;;;;;;;30.93;18.13;;;9.20;99.90;;;;;;5009559;28;20221;-25
2022/01/27 10:10:56;;;;;;;28.17;16.77;;;9.30;99.90;;;;;;5008216;28;20208;-25
2022/01/27 10:13:35;;;;;;;27.73;16.97;;;9.30;99.90;;;;;;5008882;28;20212;-25
2022/01/27 10:16:08;;;;;;;29.00;18.10;;;9.30;99.90;;;;;;5008370;28;20300;-24
2022/01/27 10:18:41;;;;;;;33.13;17.57;;;9.40;99.90;;;;;;5009233;28;20229;-24
2022/01/27 10:21:13;;;;;;;28.57;17.57;;;9.40;99.90;;;;;;5008765;28;20631;-25
2022/01/27 10:23:44;;;;;;;29.60;17.23;;;9.40;99.90;;;;;;5008867;28;20218;-24
2022/01/27 10:26:30;;;;;;;28.73;17.50;;;9.50;99.90;;;;;;5008757;28;20197;-24
2022/01/27 10:29:08;;;;;;;26.23;15.60;;;9.50;99.90;;;;;;5024592;28;20215;-24
2022/01/27 10:31:41;;;;;;;30.00;15.40;;;9.50;99.90;;;;;;5008553;28;20208;-24
2022/01/27 10:34:11;;;;;;;26.70;14.60;;;9.60;99.90;;;;;;5009246;28;20214;-24
2022/01/27 10:36:44;;;;;;;25.63;15.87;;;9.60;99.90;;;;;;5009082;28;20626;-25
2022/01/27 10:39:20;;;;;;;23.60;15.27;;;9.60;99.90;;;;;;5007857;28;20236;-24
2022/01/27 10:41:55;;;;;;;25.23;14.40;;;9.60;99.90;;;;;;5007451;28;20294;-24
2022/01/27 10:44:31;;;;;;;23.17;14.73;;;9.70;99.90;;;;;;5022013;28;20308;-25
2022/01/27 10:47:22;;;;;;;24.10;14.47;;;9.70;99.90;;;;;;5008381;28;20189;-25
2022/01/27 10:50:01;;;;;;;23.27;14.60;;;9.70;99.90;;;;;;4993202;28;20221;-25
2022/01/27 10:52:39;;;;;;;21.97;14.23;;;9.70;99.90;;;;;;5008434;28;20201;-24
2022/01/27 10:55:13;;;;;;;27.10;14.90;;;9.80;99.90;;;;;;4994726;28;20197;-25
2022/01/27 10:57:49;;;;;;;22.40;14.33;;;9.80;99.90;;;;;;5008405;28;20553;-24
2022/01/27 11:00:19;;;;;;;21.97;13.77;;;9.80;99.90;;;;;;5006393;28;20205;-24
2022/01/27 11:02:56;;;;;;;20.07;13.20;;;9.80;99.90;;;;;;5008869;28;20216;-25
2022/01/27 11:05:31;;;;;;;23.30;13.83;;;9.90;99.90;;;;;;5008468;28;20288;-24
2022/01/27 11:07:58;;;;;;;19.23;12.23;;;9.90;99.90;;;;;;5007410;28;20204;-25
2022/01/27 11:10:27;;;;;;;19.33;13.10;;;9.90;99.90;;;;;;5008548;28;20296;-24
2022/01/27 11:12:58;;;;;;;19.03;11.97;;;9.90;99.90;;;;;;5008926;28;20629;-24
2022/01/27 11:15:26;;;;;;;17.90;12.27;;;9.90;99.90;;;;;;5007252;28;20217;-24
2022/01/27 11:17:55;;;;;;;17.80;12.43;;;10.00;99.90;;;;;;5007539;28;20208;-24
2022/01/27 11:20:53;;;;;;;18.17;11.60;;;10.00;99.90;;;;;;5008307;28;20197;-26
2022/01/27 11:25:54;;;;;;;17.47;11.00;;;10.00;99.90;;;;;;5008133;28;20592;-26
2022/01/27 11:28:22;;;;;;;21.73;13.13;;;10.00;99.90;;;;;;5008311;28;20213;-26
2022/01/27 11:31:11;;;;;;;16.63;11.03;;;10.00;99.90;;;;;;4987317;28;20252;-26
2022/01/27 11:33:43;;;;;;;17.10;12.00;;;10.10;99.90;;;;;;5008255;28;20645;-28
2022/01/27 11:36:14;;;;;;;20.93;12.53;;;10.10;99.90;;;;;;5008076;28;20716;-26
2022/01/27 11:38:43;;;;;;;19.27;11.57;;;10.10;99.90;;;;;;5008367;28;20264;-26
2022/01/27 11:41:37;;;;;;;19.13;13.03;;;10.10;99.90;;;;;;5007381;28;20228;-26
2022/01/27 11:44:25;;;;;;;19.13;12.33;;;10.10;99.90;;;;;;5007859;28;20268;-26
2022/01/27 11:47:10;;;;;;;16.67;11.97;;;10.10;99.90;;;;;;5007830;28;20770;-26
2022/01/27 11:49:57;;;;;;;17.53;12.03;;;10.10;99.90;;;;;;5015378;28;20626;-26
2022/01/27 11:52:44;;;;;;;15.43;10.93;;;10.20;99.90;;;;;;5008182;28;20218;-26
2022/01/27 11:55:26;;;;;;;19.47;12.30;;;10.20;99.90;;;;;;5007837;28;21022;-26
2022/01/27 11:58:11;;;;;;;18.97;12.00;;;10.20;99.90;;;;;;5007812;28;20292;-26
2022/01/27 12:01:06;;;;;;;18.80;13.10;;;10.20;99.90;;;;;;5006401;28;20270;-24
2022/01/27 12:03:34;;;;;;;20.10;11.60;;;10.20;99.90;;;;;;5008290;28;20198;-24
2022/01/27 12:06:17;;;;;;;18.80;12.13;;;10.20;99.90;;;;;;5007399;28;20232;-24
2022/01/27 12:08:45;;;;;;;17.40;11.87;;;10.20;99.90;;;;;;5008304;28;20240;-24
2022/01/27 12:11:39;;;;;;;18.07;11.50;;;10.20;99.90;;;;;;5007680;28;20704;-24
2022/01/27 12:14:06;;;;;;;22.73;11.93;;;10.20;99.90;;;;;;5007735;28;20216;-24
2022/01/27 12:19:13;;;;;;;17.00;11.13;;;10.20;99.90;;;;;;5011602;28;20241;-26
2022/01/27 12:22:01;;;;;;;17.37;10.87;;;10.20;99.90;;;;;;4992127;28;20213;-26
2022/01/27 12:24:32;;;;;;;15.57;10.67;;;10.20;99.90;;;;;;5009616;28;20209;-26
2022/01/27 12:27:07;;;;;;;13.67;10.03;;;10.20;99.90;;;;;;5011307;28;20691;-26
2022/01/27 12:29:36;;;;;;;17.40;10.33;;;10.30;99.90;;;;;;5009475;28;20213;-26
2022/01/27 12:32:19;;;;;;;14.53;9.80;;;10.30;99.90;;;;;;5011615;28;20244;-26
2022/01/27 12:34:47;;;;;;;14.10;9.73;;;10.30;99.90;;;;;;5011237;28;20308;-26
2022/01/27 12:37:20;;;;;;;12.60;9.53;;;10.30;99.90;;;;;;5010218;28;20221;-26
2022/01/27 12:39:58;;;;;;;12.37;9.10;;;10.30;99.90;;;;;;5011361;28;20719;-26
2022/01/27 12:42:36;;;;;;;13.30;8.77;;;10.30;99.90;;;;;;5010034;28;20667;-26
2022/01/27 12:45:12;;;;;;;10.67;8.27;;;10.30;99.90;;;;;;5010268;28;20237;-25
2022/01/27 12:47:47;;;;;;;10.53;7.70;;;10.30;99.90;;;;;;5008300;28;20201;-26
2022/01/27 12:50:20;;;;;;;13.40;8.97;;;10.40;99.90;;;;;;4999148;28;20201;-26
2022/01/27 12:52:52;;;;;;;10.33;7.83;;;10.40;99.90;;;;;;5011300;28;20298;-26
2022/01/27 12:55:42;;;;;;;12.57;8.50;;;10.40;99.90;;;;;;4999761;28;20193;-26
2022/01/27 12:58:10;;;;;;;10.80;7.73;;;10.40;99.90;;;;;;5025016;28;20213;-26
2022/01/27 13:00:51;;;;;;;11.00;7.93;;;10.40;99.90;;;;;;5009618;28;20580;-26
2022/01/27 13:03:22;;;;;;;10.53;8.20;;;10.50;99.90;;;;;;5029565;28;20303;-26
2022/01/27 13:06:00;;;;;;;11.37;8.17;;;10.50;99.90;;;;;;5025984;28;20193;-26
2022/01/27 13:08:32;;;;;;;11.53;8.23;;;10.50;99.90;;;;;;5030200;28;20197;-26
2022/01/27 13:11:09;;;;;;;12.40;7.97;;;10.50;99.90;;;;;;5011620;28;20217;-25
2022/01/27 13:13:39;;;;;;;10.53;7.77;;;10.50;99.90;;;;;;5012209;28;20284;-26
2022/01/27 13:16:19;;;;;;;11.07;7.57;;;10.50;99.90;;;;;;5040862;28;20200;-26
2022/01/27 13:19:09;;;;;;;8.90;7.03;;;10.60;99.90;;;;;;5016581;28;20232;-25
2022/01/27 13:21:41;;;;;;;11.03;6.90;;;10.60;99.90;;;;;;5041025;28;20733;-25
2022/01/27 13:24:26;;;;;;;9.07;6.67;;;10.60;99.90;;;;;;5010369;28;20202;-25
2022/01/27 13:27:12;;;;;;;10.03;7.13;;;10.60;99.90;;;;;;5011748;28;20205;-26
2022/01/27 13:29:47;;;;;;;8.73;6.90;;;10.60;99.90;;;;;;5009317;28;20214;-26
2022/01/27 13:32:18;;;;;;;8.40;6.20;;;10.60;99.90;;;;;;5015972;28;20227;-26
2022/01/27 13:34:52;;;;;;;9.03;6.23;;;10.60;99.90;;;;;;5024601;28;20198;-26
2022/01/27 13:37:33;;;;;;;9.67;6.97;;;10.60;99.90;;;;;;5017681;28;20212;-26
2022/01/27 13:42:57;;;;;;;10.87;7.07;;;10.70;99.90;;;;;;5017704;28;20196;-25
2022/01/27 13:45:25;;;;;;;8.93;7.07;;;10.70;99.90;;;;;;5007522;28;20409;-26
2022/01/27 13:47:52;;;;;;;10.07;6.30;;;10.70;99.90;;;;;;5012124;28;20213;-25
2022/01/27 13:50:20;;;;;;;8.33;6.20;;;10.70;99.90;;;;;;5009504;28;20229;-26
2022/01/27 13:52:51;;;;;;;14.70;7.17;;;10.70;99.90;;;;;;5036897;28;20618;-25